createdAt,value
2019-04-01T00:00:33.545Z,41.22
2019-04-01T00:03:02.229Z,42.57
2019-04-01T00:05:30.797Z,41.68
2019-04-01T00:07:59.460Z,41.07
2019-04-01T00:10:28.154Z,42.07
2019-04-01T00:12:56.787Z,41.57
2019-04-01T00:15:25.619Z,41.42
2019-04-01T00:17:54.273Z,41.77
2019-04-01T00:20:22.917Z,41.39
2019-04-01T00:22:51.672Z,41.07
2019-04-01T00:25:20.413Z,40.88
2019-04-01T00:27:49.047Z,40.83
2019-04-01T00:30:17.715Z,40.84
2019-04-01T00:32:46.360Z,41.00
2019-04-01T00:35:14.999Z,40.96
2019-04-01T00:37:43.660Z,41.08
2019-04-01T00:40:12.447Z,41.21
2019-04-01T00:42:57.627Z,41.08
2019-04-01T00:45:28.364Z,41.74
2019-04-01T00:47:56.959Z,41.71
2019-04-01T00:50:25.644Z,41.64
2019-04-01T00:52:54.296Z,41.85
2019-04-01T00:55:22.935Z,41.65
2019-04-01T00:57:51.680Z,41.77
2019-04-01T01:00:20.525Z,42.52
2019-04-01T01:02:49.115Z,41.91
2019-04-01T01:05:17.838Z,41.90
2019-04-01T01:07:46.471Z,41.42
2019-04-01T01:10:15.206Z,41.35
2019-04-01T01:12:43.876Z,41.60
2019-04-01T01:15:12.501Z,41.78
2019-04-01T01:17:41.162Z,41.67
2019-04-01T01:20:09.916Z,41.61
2019-04-01T01:22:38.545Z,41.59
2019-04-01T01:25:07.161Z,41.67
2019-04-01T01:27:35.818Z,41.67
2019-04-01T01:30:06.248Z,41.54
2019-04-01T01:32:34.885Z,41.38
2019-04-01T01:35:03.819Z,41.46
2019-04-01T01:37:32.606Z,41.33
2019-04-01T01:40:01.322Z,41.34
2019-04-01T01:42:29.985Z,42.57
2019-04-01T01:44:58.627Z,42.07
2019-04-01T01:47:27.137Z,42.01
2019-04-01T01:49:55.807Z,41.81
2019-04-01T01:52:24.371Z,42.25
2019-04-01T01:54:52.990Z,42.07
2019-04-01T01:57:21.663Z,41.90
2019-04-01T01:59:50.273Z,41.99
2019-04-01T02:02:18.895Z,41.78
2019-04-01T02:04:47.581Z,42.11
2019-04-01T02:07:16.142Z,41.79
2019-04-01T02:09:44.687Z,41.79
2019-04-01T02:12:13.314Z,42.10
2019-04-01T02:14:41.944Z,42.60
2019-04-01T02:17:10.583Z,42.67
2019-04-01T02:19:39.241Z,42.26
2019-04-01T02:22:07.880Z,42.07
2019-04-01T02:24:36.517Z,41.99
2019-04-01T02:27:05.201Z,41.99
2019-04-01T02:29:33.831Z,42.32
2019-04-01T02:32:02.475Z,42.48
2019-04-01T02:34:31.139Z,42.49
2019-04-01T02:36:59.768Z,42.49
2019-04-01T02:39:28.233Z,42.54
2019-04-01T02:41:56.907Z,42.43
2019-04-01T02:44:25.473Z,42.91
2019-04-01T02:46:54.115Z,42.91
2019-04-01T02:49:22.884Z,42.94
2019-04-01T02:51:51.595Z,42.94
2019-04-01T02:54:20.216Z,42.81
2019-04-01T02:56:48.876Z,42.72
2019-04-01T02:59:17.531Z,42.98
2019-04-01T03:01:46.085Z,43.15
2019-04-01T03:04:14.745Z,43.10
2019-04-01T03:06:43.363Z,43.10
2019-04-01T03:09:11.994Z,43.25
2019-04-01T03:11:40.676Z,42.53
2019-04-01T03:14:09.365Z,43.14
2019-04-01T03:16:38.069Z,43.14
2019-04-01T03:19:06.713Z,43.09
2019-04-01T03:21:35.336Z,43.27
2019-04-01T03:24:03.967Z,43.29
2019-04-01T03:26:32.626Z,44.99
2019-04-01T03:29:01.336Z,44.99
2019-04-01T03:31:29.946Z,43.84
2019-04-01T03:33:58.565Z,43.84
2019-04-01T03:36:27.177Z,43.88
2019-04-01T03:38:55.865Z,43.44
2019-04-01T03:41:24.613Z,43.51
2019-04-01T03:43:53.249Z,43.54
2019-04-01T03:46:21.921Z,43.63
2019-04-01T03:48:50.713Z,43.55
2019-04-01T03:51:20.260Z,43.77
2019-04-01T03:53:49.785Z,45.05
2019-04-01T03:56:18.704Z,44.44
2019-04-01T03:58:47.402Z,44.44
2019-04-01T04:01:16.051Z,44.19
2019-04-01T04:03:44.660Z,43.96
2019-04-01T04:06:13.295Z,43.80
2019-04-01T04:08:44.894Z,44.12
2019-04-01T04:11:13.483Z,44.12
2019-04-01T04:13:42.194Z,43.78
2019-04-01T04:16:11.743Z,44.92
2019-04-01T04:18:40.463Z,44.61
2019-04-01T04:21:09.297Z,47.50
2019-04-01T04:23:37.918Z,45.86
2019-04-01T04:26:06.570Z,45.02
2019-04-01T04:28:35.183Z,44.43
2019-04-01T04:31:03.897Z,44.37
2019-04-01T04:33:32.622Z,44.18
2019-04-01T04:36:01.267Z,44.11
2019-04-01T04:38:29.763Z,44.60
2019-04-01T04:40:58.425Z,44.41
2019-04-01T04:43:27.128Z,44.54
2019-04-01T04:45:56.672Z,44.53
2019-04-01T04:48:25.357Z,44.53
2019-04-01T04:50:53.974Z,44.55
2019-04-01T04:53:23.665Z,44.39
2019-04-01T04:55:52.395Z,44.36
2019-04-01T04:58:21.969Z,44.37
2019-04-01T05:00:50.920Z,44.37
2019-04-01T05:03:19.640Z,44.15
2019-04-01T05:05:48.267Z,44.23
2019-04-01T05:08:16.908Z,44.67
2019-04-01T05:10:45.660Z,44.73
2019-04-01T05:13:14.734Z,44.77
2019-04-01T05:15:43.604Z,44.64
2019-04-01T05:18:13.105Z,44.40
2019-04-01T05:20:43.248Z,44.60
2019-04-01T05:23:12.453Z,44.40
2019-04-01T05:25:43.993Z,44.59
2019-04-01T05:28:14.625Z,44.40
2019-04-01T05:30:46.428Z,44.67
2019-04-01T05:33:18.298Z,44.86
2019-04-01T05:35:47.004Z,44.86
2019-04-01T05:38:15.965Z,44.52
2019-04-01T05:40:45.900Z,44.62
2019-04-01T05:43:14.842Z,46.97
2019-04-01T05:45:43.480Z,46.35
2019-04-01T05:48:13.017Z,46.28
2019-04-01T05:50:41.735Z,47.09
2019-04-01T05:53:10.361Z,46.22
2019-04-01T05:55:39.325Z,45.76
2019-04-01T05:58:08.052Z,44.60
2019-04-01T06:00:38.346Z,44.88
2019-04-01T06:03:07.064Z,45.42
2019-04-01T06:05:35.732Z,45.47
2019-04-01T06:08:04.488Z,44.89
2019-04-01T06:10:33.206Z,43.69
2019-04-01T06:13:02.800Z,44.90
2019-04-01T06:15:31.402Z,44.56
2019-04-01T06:18:00.129Z,45.05
2019-04-01T06:20:28.867Z,45.59
2019-04-01T06:22:57.928Z,44.39
2019-04-01T06:25:26.667Z,44.29
2019-04-01T06:27:55.301Z,43.03
2019-04-01T06:30:24.055Z,42.52
2019-04-01T06:32:52.743Z,41.67
2019-04-01T06:35:21.401Z,41.02
2019-04-01T06:37:50.139Z,42.23
2019-04-01T06:40:18.819Z,42.06
2019-04-01T06:42:47.453Z,42.50
2019-04-01T06:45:16.195Z,42.05
2019-04-01T06:47:44.949Z,41.55
2019-04-01T06:50:13.599Z,41.08
2019-04-01T06:52:42.260Z,41.55
2019-04-01T06:55:11.256Z,40.40
2019-04-01T06:57:40.029Z,40.05
2019-04-01T07:00:08.854Z,38.72
2019-04-01T07:02:37.787Z,37.49
2019-04-01T07:05:07.355Z,37.61
2019-04-01T07:07:36.044Z,36.94
2019-04-01T07:10:05.059Z,37.13
2019-04-01T07:12:33.794Z,36.24
2019-04-01T07:15:02.589Z,36.40
2019-04-01T07:17:31.241Z,36.46
2019-04-01T07:19:59.878Z,37.61
2019-04-01T07:22:28.523Z,37.26
2019-04-01T07:24:57.203Z,36.40
2019-04-01T07:27:25.869Z,38.32
2019-04-01T07:29:54.508Z,38.98
2019-04-01T07:32:23.260Z,37.93
2019-04-01T07:34:52.005Z,37.69
2019-04-01T07:37:20.699Z,37.15
2019-04-01T07:39:49.369Z,36.22
2019-04-01T07:42:18.008Z,36.64
2019-04-01T07:44:51.957Z,36.55
2019-04-01T07:47:20.735Z,35.51
2019-04-01T07:49:49.528Z,34.60
2019-04-01T07:52:18.360Z,34.41
2019-04-01T07:54:47.118Z,34.16
2019-04-01T07:57:15.841Z,33.76
2019-04-01T07:59:44.691Z,34.13
2019-04-01T08:02:13.348Z,34.86
2019-04-01T08:04:42.077Z,34.90
2019-04-01T08:07:13.293Z,34.16
2019-04-01T08:09:41.106Z,33.27
2019-04-01T08:12:09.804Z,32.35
2019-04-01T08:14:38.541Z,33.24
2019-04-01T08:17:07.256Z,33.33
2019-04-01T08:19:35.878Z,33.80
2019-04-01T08:22:04.506Z,32.87
2019-04-01T08:24:33.251Z,32.34
2019-04-01T08:27:02.078Z,31.13
2019-04-01T08:29:30.987Z,30.53
2019-04-01T08:31:59.723Z,31.81
2019-04-01T08:34:28.346Z,32.16
2019-04-01T08:36:56.984Z,31.15
2019-04-01T08:39:25.643Z,30.46
2019-04-01T08:41:54.370Z,30.76
2019-04-01T08:44:23.001Z,30.55
2019-04-01T08:46:51.694Z,30.30
2019-04-01T08:49:20.402Z,30.70
2019-04-01T08:51:49.025Z,30.25
2019-04-01T08:54:18.008Z,31.69
2019-04-01T08:56:46.633Z,30.78
2019-04-01T08:59:16.868Z,31.40
2019-04-01T09:01:45.627Z,30.71
2019-04-01T09:04:15.257Z,30.18
2019-04-01T09:06:43.886Z,29.27
2019-04-01T09:09:12.552Z,28.91
2019-04-01T09:11:41.463Z,29.48
2019-04-01T09:14:10.690Z,29.60
2019-04-01T09:16:39.551Z,29.12
2019-04-01T09:19:08.230Z,28.79
2019-04-01T09:21:36.953Z,28.12
2019-04-01T09:24:05.674Z,27.44
2019-04-01T09:26:34.401Z,28.07
2019-04-01T09:29:03.146Z,27.48
2019-04-01T09:31:31.947Z,28.00
2019-04-01T09:34:00.657Z,28.63
2019-04-01T09:36:29.332Z,27.43
2019-04-01T09:38:58.057Z,27.85
2019-04-01T09:41:29.545Z,27.27
2019-04-01T09:43:58.105Z,27.73
2019-04-01T09:46:26.772Z,27.37
2019-04-01T09:48:55.423Z,26.69
2019-04-01T09:51:24.173Z,27.68
2019-04-01T09:53:52.843Z,27.64
2019-04-01T09:56:21.481Z,27.84
2019-04-01T09:58:50.119Z,26.99
2019-04-01T10:01:18.793Z,27.88
2019-04-01T10:03:47.481Z,27.56
2019-04-01T10:06:16.152Z,26.85
2019-04-01T10:08:44.909Z,26.51
2019-04-01T10:11:13.546Z,27.22
2019-04-01T10:13:42.186Z,27.71
2019-04-01T10:16:10.844Z,26.84
2019-04-01T10:18:39.464Z,26.26
2019-04-01T10:21:08.078Z,26.45
2019-04-01T10:23:36.739Z,25.62
2019-04-01T10:26:05.369Z,25.01
2019-04-01T10:28:33.994Z,24.38
2019-04-01T10:31:02.758Z,24.45
2019-04-01T10:33:31.453Z,24.07
2019-04-01T10:36:00.072Z,23.69
2019-04-01T10:38:28.902Z,23.70
2019-04-01T10:40:57.560Z,23.00
2019-04-01T10:43:26.189Z,23.92
2019-04-01T10:45:54.917Z,24.44
2019-04-01T10:48:23.593Z,24.29
2019-04-01T10:50:52.253Z,23.93
2019-04-01T10:53:21.088Z,24.09
2019-04-01T10:55:49.738Z,24.73
2019-04-01T10:58:18.393Z,23.71
2019-04-01T11:00:47.113Z,23.99
2019-04-01T11:03:15.823Z,23.52
2019-04-01T11:05:44.550Z,23.73
2019-04-01T11:08:13.303Z,23.03
2019-04-01T11:10:41.909Z,23.43
2019-04-01T11:13:10.598Z,23.68
2019-04-01T11:15:39.347Z,23.03
2019-04-01T11:18:07.969Z,23.08
2019-04-01T11:20:36.884Z,22.88
2019-04-01T11:23:05.785Z,22.77
2019-04-01T11:25:34.391Z,22.21
2019-04-01T11:28:03.007Z,21.84
2019-04-01T11:30:31.832Z,22.40
2019-04-01T11:33:00.501Z,21.52
2019-04-01T11:35:29.110Z,21.10
2019-04-01T11:37:57.778Z,20.14
2019-04-01T11:40:26.411Z,21.72
2019-04-01T11:42:55.218Z,21.60
2019-04-01T11:45:23.950Z,21.06
2019-04-01T11:47:52.573Z,21.53
2019-04-01T11:50:21.238Z,21.28
2019-04-01T11:52:49.943Z,21.68
2019-04-01T11:55:18.528Z,20.99
2019-04-01T11:57:47.219Z,20.93
2019-04-01T12:00:17.941Z,19.89
2019-04-01T12:02:46.664Z,19.42
2019-04-01T12:05:15.270Z,18.43
2019-04-01T12:07:43.992Z,18.37
2019-04-01T12:10:13.017Z,20.34
2019-04-01T12:12:41.637Z,22.78
2019-04-01T12:15:12.323Z,22.86
2019-04-01T12:17:41.849Z,22.89
2019-04-01T12:20:10.846Z,22.82
2019-04-01T12:22:40.665Z,23.39
2019-04-01T12:25:09.651Z,23.09
2019-04-01T12:27:38.327Z,22.76
2019-04-01T12:30:07.279Z,22.55
2019-04-01T12:32:35.909Z,21.13
2019-04-01T12:35:05.762Z,21.59
2019-04-01T12:37:34.444Z,20.65
2019-04-01T12:40:03.341Z,21.33
2019-04-01T12:42:31.960Z,20.63
2019-04-01T12:45:00.614Z,21.27
2019-04-01T12:47:29.257Z,22.38
2019-04-01T12:49:57.946Z,22.49
2019-04-01T12:52:26.604Z,21.78
2019-04-01T12:54:55.295Z,21.47
2019-04-01T12:57:23.928Z,22.25
2019-04-01T12:59:53.459Z,20.83
2019-04-01T13:02:22.271Z,20.29
2019-04-01T13:04:51.601Z,21.35
2019-04-01T13:07:20.782Z,22.15
2019-04-01T13:09:49.370Z,21.59
2019-04-01T13:12:18.211Z,21.99
2019-04-01T13:14:46.832Z,21.85
2019-04-01T13:17:15.447Z,21.96
2019-04-01T13:19:44.959Z,20.74
2019-04-01T13:22:13.700Z,20.98
2019-04-01T13:24:42.394Z,21.80
2019-04-01T13:27:11.100Z,21.67
2019-04-01T13:29:39.839Z,20.91
2019-04-01T13:32:08.510Z,21.35
2019-04-01T13:34:37.149Z,21.14
2019-04-01T13:37:05.876Z,21.45
2019-04-01T13:39:34.498Z,20.99
2019-04-01T13:42:03.191Z,21.27
2019-04-01T13:44:37.327Z,20.94
2019-04-01T13:47:02.050Z,20.35
2019-04-01T13:49:30.666Z,20.21
2019-04-01T13:52:01.759Z,20.02
2019-04-01T13:54:29.674Z,20.30
2019-04-01T13:56:58.296Z,20.61
2019-04-01T13:59:26.954Z,21.20
2019-04-01T14:01:56.372Z,20.70
2019-04-01T14:04:27.333Z,20.55
2019-04-01T14:06:56.124Z,20.21
2019-04-01T14:09:24.748Z,20.03
2019-04-01T14:11:53.297Z,20.37
2019-04-01T14:14:21.957Z,20.06
2019-04-01T14:16:50.577Z,19.67
2019-04-01T14:19:19.206Z,19.98
2019-04-01T14:21:47.861Z,20.09
2019-04-01T14:24:16.489Z,20.20
2019-04-01T14:26:45.033Z,20.66
2019-04-01T14:29:16.498Z,21.00
2019-04-01T14:31:44.043Z,21.43
2019-04-01T14:34:13.826Z,21.74
2019-04-01T14:36:44.684Z,21.72
2019-04-01T14:39:13.304Z,20.71
2019-04-01T14:41:42.013Z,20.46
2019-04-01T14:44:10.677Z,21.19
2019-04-01T14:46:39.725Z,21.78
2019-04-01T14:49:08.437Z,21.98
2019-04-01T14:51:37.086Z,22.02
2019-04-01T14:54:06.123Z,22.13
2019-04-01T14:56:35.082Z,22.13
2019-04-01T14:59:03.726Z,21.58
2019-04-01T15:01:32.353Z,22.00
2019-04-01T15:04:00.976Z,21.65
2019-04-01T15:06:29.587Z,22.09
2019-04-01T15:08:58.202Z,22.39
2019-04-01T15:11:28.396Z,22.23
2019-04-01T15:13:59.937Z,21.88
2019-04-01T15:16:27.406Z,23.08
2019-04-01T15:18:56.023Z,23.50
2019-04-01T15:21:24.785Z,23.51
2019-04-01T15:23:53.570Z,23.32
2019-04-01T15:26:22.233Z,23.53
2019-04-01T15:28:50.894Z,23.04
2019-04-01T15:31:19.612Z,23.36
2019-04-01T15:33:48.300Z,23.19
2019-04-01T15:36:16.994Z,23.17
2019-04-01T15:38:45.620Z,22.92
2019-04-01T15:41:14.294Z,22.36
2019-04-01T15:43:43.960Z,23.31
2019-04-01T15:46:12.570Z,24.29
2019-04-01T15:48:41.569Z,24.27
2019-04-01T15:51:10.253Z,24.33
2019-04-01T15:53:38.887Z,24.62
2019-04-01T15:56:07.569Z,23.71
2019-04-01T15:58:36.253Z,24.09
2019-04-01T16:01:04.938Z,23.87
2019-04-01T16:03:33.555Z,24.74
2019-04-01T16:06:03.045Z,25.04
2019-04-01T16:08:32.014Z,24.67
2019-04-01T16:11:00.642Z,24.67
2019-04-01T16:13:29.303Z,24.15
2019-04-01T16:15:57.939Z,25.19
2019-04-01T16:18:26.497Z,25.51
2019-04-01T16:20:55.549Z,25.26
2019-04-01T16:23:24.486Z,24.59
2019-04-01T16:25:53.120Z,24.33
2019-04-01T16:28:21.799Z,25.14
2019-04-01T16:30:50.415Z,25.48
2019-04-01T16:33:18.953Z,26.34
2019-04-01T16:35:47.624Z,26.18
2019-04-01T16:38:16.242Z,25.75
2019-04-01T16:40:44.799Z,25.25
2019-04-01T16:43:13.451Z,25.41
2019-04-01T16:45:42.936Z,25.26
2019-04-01T16:48:11.684Z,25.49
2019-04-01T16:50:40.347Z,25.54
2019-04-01T16:53:08.994Z,25.58
2019-04-01T16:55:55.482Z,24.78
2019-04-01T16:58:29.244Z,25.07
2019-04-01T17:01:02.492Z,24.76
2019-04-01T17:03:31.022Z,24.77
2019-04-01T17:06:01.089Z,25.02
2019-04-01T17:08:29.881Z,25.32
2019-04-01T17:10:58.559Z,25.78
2019-04-01T17:13:33.684Z,25.51
2019-04-01T17:16:02.362Z,25.74
2019-04-01T17:18:31.792Z,25.71
2019-04-01T17:21:00.413Z,26.20
2019-04-01T17:23:30.738Z,26.22
2019-04-01T17:25:59.648Z,26.29
2019-04-01T17:28:28.282Z,26.70
2019-04-01T17:30:56.908Z,27.10
2019-04-01T17:33:25.511Z,27.36
2019-04-01T17:35:54.130Z,27.44
2019-04-01T17:38:22.759Z,27.38
2019-04-01T17:40:51.431Z,27.76
2019-04-01T17:43:22.966Z,27.55
2019-04-01T17:45:50.416Z,27.71
2019-04-01T17:48:19.067Z,27.66
2019-04-01T17:50:47.696Z,27.68
2019-04-01T17:53:16.398Z,27.70
2019-04-01T17:55:45.789Z,28.25
2019-04-01T17:58:16.096Z,28.04
2019-04-01T18:00:48.738Z,28.08
2019-04-01T18:03:17.405Z,27.98
2019-04-01T18:05:46.037Z,27.83
2019-04-01T18:08:14.732Z,27.87
2019-04-01T18:10:43.388Z,28.38
2019-04-01T18:13:12.026Z,28.15
2019-04-01T18:15:40.667Z,29.06
2019-04-01T18:18:10.229Z,29.06
2019-04-01T18:20:39.236Z,28.86
2019-04-01T18:23:07.867Z,28.90
2019-04-01T18:25:36.530Z,28.84
2019-04-01T18:28:05.153Z,28.66
2019-04-01T18:30:35.128Z,28.75
2019-04-01T18:33:03.949Z,28.73
2019-04-01T18:35:32.636Z,28.85
2019-04-01T18:38:01.332Z,28.92
2019-04-01T18:40:33.085Z,28.87
2019-04-01T18:43:00.529Z,29.01
2019-04-01T18:45:29.234Z,29.72
2019-04-01T18:47:57.976Z,29.50
2019-04-01T18:50:26.684Z,29.73
2019-04-01T18:52:55.399Z,29.88
2019-04-01T18:55:24.163Z,29.75
2019-04-01T18:57:52.878Z,30.01
2019-04-01T19:00:21.672Z,30.15
2019-04-01T19:02:50.400Z,30.19
2019-04-01T19:05:19.124Z,30.26
2019-04-01T19:07:47.824Z,29.98
2019-04-01T19:10:16.660Z,30.29
2019-04-01T19:12:46.217Z,30.51
2019-04-01T19:15:15.027Z,30.40
2019-04-01T19:17:43.880Z,30.63
2019-04-01T19:20:12.872Z,30.71
2019-04-01T19:22:41.687Z,31.26
2019-04-01T19:25:11.422Z,30.60
2019-04-01T19:27:40.055Z,30.51
2019-04-01T19:30:09.755Z,30.18
2019-04-01T19:32:38.905Z,30.15
2019-04-01T19:35:09.604Z,30.31
2019-04-01T19:37:38.251Z,30.14
2019-04-01T19:40:07.828Z,30.21
2019-04-01T19:42:39.654Z,29.94
2019-04-01T19:45:09.846Z,29.96
2019-04-01T19:47:38.613Z,29.91
2019-04-01T19:50:08.972Z,29.88
2019-04-01T19:52:37.600Z,29.86
2019-04-01T19:55:06.970Z,29.77
2019-04-01T19:57:35.603Z,29.33
2019-04-01T20:00:08.688Z,29.51
2019-04-01T20:02:37.341Z,29.06
2019-04-01T20:05:08.172Z,28.94
2019-04-01T20:07:36.808Z,28.55
2019-04-01T20:10:06.481Z,28.35
2019-04-01T20:12:35.115Z,28.76
2019-04-01T20:15:05.384Z,28.91
2019-04-01T20:17:34.039Z,28.76
2019-04-01T20:20:02.931Z,29.04
2019-04-01T20:22:31.581Z,28.90
2019-04-01T20:25:00.256Z,28.68
2019-04-01T20:27:28.895Z,28.62
2019-04-01T20:29:57.450Z,28.74
2019-04-01T20:32:26.123Z,28.71
2019-04-01T20:34:57.311Z,29.57
2019-04-01T20:37:25.139Z,29.09
2019-04-01T20:39:55.228Z,28.84
2019-04-01T20:42:24.168Z,28.50
2019-04-01T20:44:52.802Z,28.69
2019-04-01T20:47:21.481Z,28.83
2019-04-01T20:49:50.047Z,28.73
2019-04-01T20:52:18.660Z,30.66
2019-04-01T20:54:47.324Z,30.70
2019-04-01T20:57:17.176Z,30.67
2019-04-01T20:59:45.871Z,30.66
2019-04-01T21:02:14.539Z,31.08
2019-04-01T21:04:43.180Z,31.09
2019-04-01T21:07:11.752Z,31.33
2019-04-01T21:09:40.458Z,31.11
2019-04-01T21:12:09.097Z,31.71
2019-04-01T21:14:37.728Z,32.60
2019-04-01T21:17:06.410Z,31.89
2019-04-01T21:19:35.041Z,31.32
2019-04-01T21:22:03.736Z,31.11
2019-04-01T21:24:33.138Z,31.23
2019-04-01T21:27:02.607Z,31.47
2019-04-01T21:29:31.232Z,31.49
2019-04-01T21:31:59.975Z,31.08
2019-04-01T21:34:28.616Z,31.19
2019-04-01T21:36:57.244Z,32.13
2019-04-01T21:39:25.895Z,32.59
2019-04-01T21:41:54.524Z,31.56
2019-04-01T21:44:23.142Z,31.74
2019-04-01T21:46:51.809Z,32.56
2019-04-01T21:49:20.428Z,32.52
2019-04-01T21:51:49.051Z,32.46
2019-04-01T21:54:17.709Z,32.08
2019-04-01T21:56:46.338Z,31.44
2019-04-01T21:59:14.973Z,31.50
2019-04-01T22:01:43.638Z,31.74
2019-04-01T22:04:12.343Z,32.08
2019-04-01T22:06:41.436Z,31.12
2019-04-01T22:09:11.592Z,30.91
2019-04-01T22:11:40.214Z,31.13
2019-04-01T22:14:08.919Z,30.66
2019-04-01T22:16:39.223Z,30.83
2019-04-01T22:19:07.857Z,30.44
2019-04-01T22:21:36.484Z,30.19
2019-04-01T22:24:05.133Z,30.44
2019-04-01T22:26:33.757Z,29.64
2019-04-01T22:29:02.311Z,30.55
2019-04-01T22:31:30.970Z,29.87
2019-04-01T22:33:59.596Z,29.27
2019-04-01T22:36:31.324Z,29.25
2019-04-01T22:38:58.609Z,29.10
2019-04-01T22:41:29.181Z,29.70
2019-04-01T22:43:57.567Z,29.60
2019-04-01T22:46:26.238Z,29.17
2019-04-01T22:48:54.869Z,29.46
2019-04-01T22:51:23.487Z,29.52
2019-04-01T22:53:52.060Z,29.46
2019-04-01T22:56:20.616Z,29.12
2019-04-01T22:58:49.239Z,29.34
2019-04-01T23:01:17.900Z,30.01
2019-04-01T23:03:46.526Z,29.84
2019-04-01T23:06:15.158Z,29.55
2019-04-01T23:08:43.827Z,30.71
2019-04-01T23:11:12.450Z,31.71
2019-04-01T23:13:41.070Z,32.19
2019-04-01T23:16:09.731Z,32.54
2019-04-01T23:18:38.361Z,32.17
2019-04-01T23:21:06.907Z,32.14
2019-04-01T23:23:35.563Z,31.99
2019-04-01T23:26:04.196Z,31.90
2019-04-01T23:28:32.830Z,32.70
2019-04-01T23:31:01.482Z,32.74
2019-04-01T23:33:30.116Z,33.10
2019-04-01T23:35:58.755Z,33.48
2019-04-01T23:38:27.418Z,33.39
2019-04-01T23:40:56.049Z,35.32
2019-04-01T23:43:26.039Z,34.16
2019-04-01T23:45:54.799Z,34.15
2019-04-01T23:48:23.427Z,34.88
2019-04-01T23:50:52.061Z,35.70
2019-04-01T23:53:20.722Z,34.74
2019-04-01T23:55:49.349Z,34.80
2019-04-01T23:58:17.964Z,37.18
